Time;durP1;ratioP1;P1;durP2;ratioP2;P2;SDS_P1;SDS_P2;PMS_P1;PMS_P2;Temp;Humidity;BMP_temperature;BMP_pressure;BME280_temperature;BME280_humidity;BME280_pressure;Samples;Min_cycle;Max_cycle;Signal;HPM_P1;HPM_P2
2023/07/30 00:01:14;;;;;;;2.10;1.70;;;;;;;22.36;63.68;100015.31;5039099;28;20090;-69
2023/07/30 00:03:40;;;;;;;2.17;1.50;;;;;;;22.35;63.51;100013.63;5047319;28;20098;-68
2023/07/30 00:06:05;;;;;;;1.95;1.85;;;;;;;22.36;63.65;100015.31;5052869;28;20101;-67
2023/07/30 00:08:31;;;;;;;2.13;1.60;;;;;;;22.35;63.39;100013.63;5057913;28;20024;-69
2023/07/30 00:10:57;;;;;;;1.75;1.65;;;;;;;22.35;63.42;100008.34;5056886;28;20119;-66
2023/07/30 00:13:23;;;;;;;1.85;1.73;;;;;;;22.35;63.78;100003.06;5056851;28;20055;-67
2023/07/30 00:15:48;;;;;;;1.88;1.77;;;;;;;22.35;63.67;100011.00;5061713;28;20036;-66
2023/07/30 00:18:14;;;;;;;2.30;1.80;;;;;;;22.34;63.78;100027.81;5056903;28;20044;-67
2023/07/30 00:20:40;;;;;;;4.55;1.88;;;;;;;22.35;63.39;100018.06;5057298;28;20032;-68
2023/07/30 00:23:06;;;;;;;2.67;1.63;;;;;;;22.34;63.83;100019.03;5051934;28;20103;-70
2023/07/30 00:25:31;;;;;;;1.83;1.58;;;;;;;22.33;63.92;100026.13;5052357;28;20096;-66
2023/07/30 00:27:56;;;;;;;2.00;1.65;;;;;;;22.35;63.96;100026.00;5058636;28;20038;-68
2023/07/30 00:30:22;;;;;;;2.88;1.85;;;;;;;22.33;63.77;100026.13;5057260;28;20028;-68
2023/07/30 00:32:47;;;;;;;1.83;1.60;;;;;;;22.34;63.73;100032.25;5053037;28;20119;-67
2023/07/30 00:35:12;;;;;;;2.30;2.10;;;;;;;22.33;63.93;100028.78;5058412;28;20021;-68
2023/07/30 00:37:38;;;;;;;1.70;1.60;;;;;;;22.35;63.83;100032.16;5058259;28;20029;-66
2023/07/30 00:40:04;;;;;;;2.10;1.90;;;;;;;22.34;63.75;100033.09;5057604;28;20039;-69
2023/07/30 00:42:29;;;;;;;2.05;1.83;;;;;;;22.33;64.05;100036.72;5053464;28;20189;-69
2023/07/30 00:44:55;;;;;;;1.80;1.70;;;;;;;22.34;63.90;100041.03;5051642;28;20113;-69
2023/07/30 00:47:21;;;;;;;1.70;1.60;;;;;;;22.35;64.02;100048.03;5054862;28;20111;-67
2023/07/30 00:49:47;;;;;;;3.03;1.73;;;;;;;22.34;63.79;100042.84;5057895;28;20058;-67
2023/07/30 00:52:12;;;;;;;1.73;1.60;;;;;;;22.34;63.93;100041.03;5061571;28;20027;-68
2023/07/30 00:54:39;;;;;;;1.98;1.58;;;;;;;22.35;63.91;100049.81;5061823;28;20052;-67
2023/07/30 00:57:04;;;;;;;2.75;1.98;;;;;;;22.34;63.84;100037.56;5091953;27;20852;-67
2023/07/30 00:59:30;;;;;;;2.95;1.50;;;;;;;22.33;64.01;100041.19;5059623;28;20028;-69
2023/07/30 01:01:56;;;;;;;1.75;1.65;;;;;;;22.33;63.67;100046.47;5059262;28;20134;-69
2023/07/30 01:04:21;;;;;;;2.33;1.73;;;;;;;22.33;63.97;100042.00;5055518;28;20426;-67
2023/07/30 01:06:47;;;;;;;2.03;1.58;;;;;;;22.33;63.82;100042.00;5061516;28;20024;-66
2023/07/30 01:09:12;;;;;;;2.10;1.90;;;;;;;22.32;63.62;100044.78;5061421;28;20032;-69
2023/07/30 01:11:38;;;;;;;1.60;1.50;;;;;;;22.32;63.65;100048.28;5057624;28;20558;-69
2023/07/30 01:14:05;;;;;;;1.77;1.63;;;;;;;22.32;64.11;100050.91;5055385;28;20063;-67
2023/07/30 01:16:31;;;;;;;1.85;1.73;;;;;;;22.32;63.72;100058.84;5057856;28;20047;-68
2023/07/30 01:18:58;;;;;;;2.22;2.10;;;;;;;22.31;63.93;100054.53;5061142;28;20031;-68
2023/07/30 01:21:24;;;;;;;3.50;1.70;;;;;;;22.32;64.19;100060.66;5058146;28;20093;-70
2023/07/30 01:23:49;;;;;;;2.33;1.73;;;;;;;22.32;63.95;100052.72;5053271;28;20055;-68
2023/07/30 01:26:24;;;;;;;1.73;1.63;;;;;;;22.31;63.96;100049.25;5062294;28;20040;-67
2023/07/30 01:28:54;;;;;;;4.10;1.60;;;;;;;22.32;63.50;100058.84;5060331;28;20634;-68
2023/07/30 01:31:20;;;;;;;2.05;1.70;;;;;;;22.33;63.93;100051.75;5057646;28;20025;-67
2023/07/30 01:33:48;;;;;;;1.80;1.70;;;;;;;22.32;63.85;100061.50;5062534;28;20052;-68
2023/07/30 01:36:15;;;;;;;2.00;1.77;;;;;;;22.33;63.97;100062.34;5056677;28;20028;-69
2023/07/30 01:38:42;;;;;;;3.35;1.75;;;;;;;22.33;63.93;100068.47;5060510;28;20032;-69
2023/07/30 01:41:07;;;;;;;1.88;1.52;;;;;;;22.33;64.26;100067.63;5059132;28;20043;-69
2023/07/30 01:43:32;;;;;;;1.85;1.75;;;;;;;22.33;63.65;100065.81;5057892;28;20024;-67
2023/07/30 01:45:58;;;;;;;1.90;1.75;;;;;;;22.33;63.72;100067.63;5061975;28;20119;-69
2023/07/30 01:48:23;;;;;;;2.28;1.60;;;;;;;22.31;63.85;100081.00;5057778;28;20123;-69
2023/07/30 01:50:48;;;;;;;1.92;1.70;;;;;;;22.33;64.32;100088.78;5058800;28;20036;-67
2023/07/30 01:53:14;;;;;;;2.65;2.00;;;;;;;22.32;63.82;100093.25;5053305;28;20031;-68
2023/07/30 01:55:43;;;;;;;2.72;1.80;;;;;;;22.32;63.93;100092.41;5057530;28;20036;-67
2023/07/30 01:58:09;;;;;;;2.25;2.05;;;;;;;22.32;64.23;100092.41;5059216;28;20028;-69
2023/07/30 02:00:35;;;;;;;2.58;1.67;;;;;;;22.31;64.18;100075.69;5057805;28;20028;-69
2023/07/30 02:03:00;;;;;;;1.65;1.55;;;;;;;22.30;64.21;100071.38;5063169;28;21566;-68
2023/07/30 02:05:26;;;;;;;2.25;2.05;;;;;;;22.31;63.99;100064.28;5054596;28;20095;-70
2023/07/30 02:07:51;;;;;;;1.90;1.80;;;;;;;22.30;63.95;100071.38;5060730;28;20138;-70
2023/07/30 02:10:16;;;;;;;2.40;2.20;;;;;;;22.31;64.26;100069.56;5058665;28;20042;-69
2023/07/30 02:12:41;;;;;;;3.10;1.88;;;;;;;22.30;64.03;100071.38;5055464;28;20028;-67
2023/07/30 02:15:07;;;;;;;2.20;2.00;;;;;;;22.31;64.04;100081.00;5052984;28;20060;-68
2023/07/30 02:17:32;;;;;;;2.30;1.90;;;;;;;22.36;63.64;100076.13;5043405;28;20035;-67
2023/07/30 02:19:58;;;;;;;2.30;1.70;;;;;;;22.36;63.29;100078.78;5060186;28;20039;-68
2023/07/30 02:22:23;;;;;;;3.05;1.70;;;;;;;22.33;64.14;100079.03;5063977;28;20330;-67
2023/07/30 02:24:48;;;;;;;1.70;1.60;;;;;;;22.33;63.89;100076.38;5054915;28;20074;-67
2023/07/30 02:27:14;;;;;;;1.88;1.77;;;;;;;22.31;64.38;100069.56;5058529;28;20035;-69
2023/07/30 02:29:40;;;;;;;2.33;1.65;;;;;;;22.31;64.46;100069.56;5062162;28;20050;-67
2023/07/30 02:32:05;;;;;;;1.77;1.60;;;;;;;22.31;64.38;100072.22;5057076;28;20020;-68
2023/07/30 02:34:31;;;;;;;2.00;1.80;;;;;;;22.31;64.09;100078.34;5062020;28;20623;-68
2023/07/30 02:36:56;;;;;;;3.25;1.88;;;;;;;22.31;64.45;100073.06;5062671;28;20028;-67
2023/07/30 02:39:22;;;;;;;2.00;1.42;;;;;;;22.31;64.08;100080.16;5060921;28;20866;-67
2023/07/30 02:41:47;;;;;;;2.25;1.77;;;;;;;22.31;64.36;100086.28;5058129;28;20028;-68
2023/07/30 02:44:12;;;;;;;2.00;1.90;;;;;;;22.31;64.12;100094.22;5054645;28;20039;-68
2023/07/30 02:46:37;;;;;;;2.75;1.90;;;;;;;22.33;64.22;100099.34;5060277;28;20129;-67
2023/07/30 02:49:03;;;;;;;1.80;1.70;;;;;;;22.32;64.28;100100.34;5060031;28;20428;-69
2023/07/30 02:51:28;;;;;;;2.25;2.03;;;;;;;22.32;64.33;100098.53;5058638;28;20551;-68
2023/07/30 02:53:59;;;;;;;2.55;1.90;;;;;;;22.32;64.45;100098.53;5060131;28;20408;-67
2023/07/30 02:56:24;;;;;;;1.98;1.75;;;;;;;22.31;64.50;100102.16;5054974;28;20535;-67
2023/07/30 02:58:50;;;;;;;1.80;1.70;;;;;;;22.31;64.26;100098.66;5059749;28;20043;-66
2023/07/30 03:01:15;;;;;;;2.15;1.70;;;;;;;22.31;64.43;100096.84;5057070;28;20032;-68
2023/07/30 03:03:40;;;;;;;1.67;1.52;;;;;;;22.32;63.96;100097.69;5053052;28;20036;-67
2023/07/30 03:06:06;;;;;;;2.13;1.65;;;;;;;22.31;64.06;100107.44;5055986;28;20024;-68
2023/07/30 03:08:31;;;;;;;2.03;1.75;;;;;;;22.31;64.36;100110.09;5058387;28;20028;-69
2023/07/30 03:10:59;;;;;;;2.17;1.58;;;;;;;22.31;63.98;100098.66;5057865;28;20083;-65
2023/07/30 03:13:26;;;;;;;1.73;1.63;;;;;;;22.30;64.10;100097.84;5057132;28;20024;-67
2023/07/30 03:15:51;;;;;;;1.63;1.52;;;;;;;22.30;64.11;100094.34;5054367;28;20275;-69
2023/07/30 03:18:16;;;;;;;3.10;1.80;;;;;;;22.30;64.39;100094.34;5058988;28;20619;-69
2023/07/30 03:20:42;;;;;;;2.40;1.63;;;;;;;22.29;64.22;100097.94;5058399;28;20489;-66
2023/07/30 03:23:07;;;;;;;1.58;1.48;;;;;;;22.29;63.91;100104.06;5048478;28;20057;-67
2023/07/30 03:25:32;;;;;;;2.47;1.73;;;;;;;22.29;64.26;100098.78;5061489;28;20072;-69
2023/07/30 03:27:58;;;;;;;2.53;1.60;;;;;;;22.29;63.97;100092.66;5059086;28;20054;-67
2023/07/30 03:30:23;;;;;;;4.65;1.75;;;;;;;22.30;64.11;100091.72;5058510;28;20687;-67
2023/07/30 03:32:48;;;;;;;1.70;1.55;;;;;;;22.30;64.10;100089.06;5053320;28;20614;-68
2023/07/30 03:35:14;;;;;;;1.80;1.60;;;;;;;22.29;64.09;100098.78;5052653;28;20557;-67
2023/07/30 03:37:39;;;;;;;1.83;1.73;;;;;;;22.31;64.06;100098.66;5059148;28;20028;-66
2023/07/30 03:40:05;;;;;;;2.55;1.77;;;;;;;22.30;64.07;100111.06;5057362;28;20515;-68
2023/07/30 03:42:31;;;;;;;1.83;1.73;;;;;;;22.30;63.92;100111.06;5061305;28;20032;-67
2023/07/30 03:44:56;;;;;;;2.20;1.63;;;;;;;22.31;63.89;100117.19;5052198;28;20097;-67
2023/07/30 03:47:21;;;;;;;2.15;1.60;;;;;;;22.30;63.94;100119.00;5059326;28;20040;-67
2023/07/30 03:49:46;;;;;;;1.85;1.70;;;;;;;22.30;64.16;100116.34;5059532;28;20029;-67
2023/07/30 03:52:12;;;;;;;1.40;1.30;;;;;;;22.29;64.29;100114.66;5057159;28;20020;-67
2023/07/30 03:54:37;;;;;;;1.52;1.42;;;;;;;22.30;64.06;100118.16;5060704;28;20028;-67
2023/07/30 03:57:03;;;;;;;1.85;1.38;;;;;;;22.30;63.92;100121.63;5056539;28;20060;-71
2023/07/30 03:59:28;;;;;;;2.08;1.40;;;;;;;22.30;64.24;100121.63;5059565;28;20067;-67
2023/07/30 04:01:54;;;;;;;1.60;1.50;;;;;;;22.30;64.30;100123.44;5056561;28;20025;-68
2023/07/30 04:04:19;;;;;;;1.92;1.83;;;;;;;22.30;64.37;100124.28;5052257;28;20081;-67
2023/07/30 04:06:44;;;;;;;2.20;1.55;;;;;;;22.29;64.04;100130.50;5056003;28;20112;-70
2023/07/30 04:09:10;;;;;;;1.80;1.70;;;;;;;22.31;64.85;100131.25;5058467;28;20102;-67
2023/07/30 04:11:35;;;;;;;2.38;1.75;;;;;;;22.28;64.23;100131.50;5055820;28;20052;-68
2023/07/30 04:14:00;;;;;;;2.30;2.10;;;;;;;22.28;64.43;100134.13;5052052;28;20131;-66
2023/07/30 04:16:26;;;;;;;2.10;1.90;;;;;;;22.29;64.27;100140.25;5055208;28;20042;-66
2023/07/30 04:18:51;;;;;;;2.53;1.52;;;;;;;22.29;64.10;100142.91;5058697;28;20028;-67
2023/07/30 04:21:16;;;;;;;2.08;1.58;;;;;;;22.30;64.24;100147.25;5056464;28;20134;-69
2023/07/30 04:23:42;;;;;;;2.10;1.90;;;;;;;22.28;64.22;100147.34;5048230;28;20035;-66
2023/07/30 04:26:07;;;;;;;2.38;1.65;;;;;;;22.29;64.36;100149.03;5059528;28;20058;-68
2023/07/30 04:28:32;;;;;;;1.77;1.67;;;;;;;22.29;64.39;100137.63;5064062;28;20031;-67
2023/07/30 04:30:58;;;;;;;2.78;1.90;;;;;;;22.28;64.12;100144.72;5059297;28;20860;-67
2023/07/30 04:33:23;;;;;;;3.08;1.70;;;;;;;22.27;64.30;100143.03;5056134;28;20237;-69
2023/07/30 04:35:49;;;;;;;2.05;1.70;;;;;;;22.28;63.99;100144.72;5059015;28;20105;-66
2023/07/30 04:38:14;;;;;;;2.47;1.60;;;;;;;22.28;63.98;100139.44;5061506;28;20032;-65
2023/07/30 04:40:40;;;;;;;2.42;1.60;;;;;;;22.28;63.97;100134.13;5061441;28;20473;-66
2023/07/30 04:43:05;;;;;;;1.73;1.63;;;;;;;22.29;64.06;100135.81;5058834;28;20060;-66
2023/07/30 04:45:30;;;;;;;2.03;1.80;;;;;;;22.28;64.33;100133.31;5057582;28;20035;-67
2023/07/30 04:47:56;;;;;;;1.80;1.52;;;;;;;22.29;64.20;100134.97;5060817;28;20031;-69
2023/07/30 04:50:21;;;;;;;1.65;1.55;;;;;;;22.28;64.18;100139.44;5061967;28;20024;-67
2023/07/30 04:52:47;;;;;;;3.35;1.70;;;;;;;22.28;64.12;100150.00;5068769;28;20127;-67
2023/07/30 04:55:12;;;;;;;2.50;1.85;;;;;;;22.29;64.24;100159.59;5056148;28;20092;-69
2023/07/30 04:57:37;;;;;;;1.73;1.55;;;;;;;22.29;64.15;100166.69;5062380;28;20024;-66
2023/07/30 05:00:03;;;;;;;2.15;2.00;;;;;;;22.29;64.15;100167.53;5059248;28;20035;-67
2023/07/30 05:02:29;;;;;;;1.90;1.80;;;;;;;22.28;64.18;100168.50;5057797;28;20036;-66
2023/07/30 05:04:55;;;;;;;3.20;1.55;;;;;;;22.29;64.28;100161.41;5054988;28;20056;-67
2023/07/30 05:07:20;;;;;;;2.00;1.80;;;;;;;22.29;64.29;100150.84;5060125;28;20528;-68
2023/07/30 05:09:45;;;;;;;2.55;1.80;;;;;;;22.30;64.31;100152.53;5062155;28;20968;-67
2023/07/30 05:12:11;;;;;;;2.67;1.70;;;;;;;22.29;64.09;100154.31;5058100;28;20039;-70
2023/07/30 05:14:36;;;;;;;2.63;1.95;;;;;;;22.30;64.27;100161.31;5056908;28;20052;-68
2023/07/30 05:17:02;;;;;;;1.63;1.52;;;;;;;22.31;64.34;100162.13;5060361;28;20135;-68
2023/07/30 05:19:28;;;;;;;2.10;1.50;;;;;;;22.32;64.19;100161.16;5059927;28;20673;-70
2023/07/30 05:21:53;;;;;;;1.98;1.77;;;;;;;22.32;64.05;100163.81;5065716;28;20038;-68
2023/07/30 05:24:19;;;;;;;1.80;1.70;;;;;;;22.31;64.36;100164.78;5054808;28;20044;-66
2023/07/30 05:26:44;;;;;;;1.77;1.67;;;;;;;22.31;64.50;100164.78;5059439;28;20040;-67
2023/07/30 05:29:09;;;;;;;1.70;1.60;;;;;;;22.30;64.13;100152.53;5062223;28;20032;-70
2023/07/30 05:31:35;;;;;;;2.25;1.50;;;;;;;22.29;64.12;100146.38;5059474;28;20036;-68
2023/07/30 05:34:00;;;;;;;2.25;1.70;;;;;;;22.30;64.41;100141.97;5065930;28;20059;-67
2023/07/30 05:36:25;;;;;;;1.77;1.40;;;;;;;22.30;64.48;100142.78;5057317;28;20117;-67
2023/07/30 05:38:51;;;;;;;2.05;1.85;;;;;;;22.30;64.49;100141.97;5061063;28;20055;-67
2023/07/30 05:41:16;;;;;;;1.67;1.58;;;;;;;22.30;64.52;100137.50;5059638;28;20143;-68
2023/07/30 05:43:42;;;;;;;1.60;1.50;;;;;;;22.30;64.17;100132.22;5054906;28;20037;-68
2023/07/30 05:46:07;;;;;;;2.60;1.67;;;;;;;22.31;64.33;100136.53;5059421;28;20143;-65
2023/07/30 05:48:33;;;;;;;2.45;1.95;;;;;;;22.32;64.18;100135.56;5061675;28;20059;-68
2023/07/30 05:50:59;;;;;;;2.03;1.80;;;;;;;22.32;64.50;100140.84;5059203;28;20055;-66
2023/07/30 05:53:24;;;;;;;2.03;1.70;;;;;;;22.32;64.58;100130.25;5050445;28;20052;-67
2023/07/30 05:55:50;;;;;;;1.95;1.40;;;;;;;22.35;64.28;100145.00;5057708;28;20033;-67
2023/07/30 05:58:15;;;;;;;1.77;1.67;;;;;;;22.35;64.21;100139.72;5061024;28;20822;-68
2023/07/30 06:00:41;;;;;;;2.53;1.90;;;;;;;22.35;64.38;100152.94;5060348;28;20067;-69
2023/07/30 06:03:08;;;;;;;2.03;1.80;;;;;;;22.35;63.98;100159.09;5055253;28;20034;-68
2023/07/30 06:05:41;;;;;;;1.85;1.75;;;;;;;22.33;63.77;100153.09;5059733;28;20492;-65
2023/07/30 06:08:06;;;;;;;1.80;1.70;;;;;;;22.33;63.39;100155.72;5059106;28;20032;-67
2023/07/30 06:10:35;;;;;;;1.60;1.50;;;;;;;22.33;63.53;100166.31;5060472;28;20025;-68
2023/07/30 06:13:00;;;;;;;2.83;1.70;;;;;;;22.34;63.38;100165.34;5058799;28;20055;-69
2023/07/30 06:15:26;;;;;;;1.85;1.75;;;;;;;22.35;63.54;100160.88;5061581;28;20329;-66
2023/07/30 06:17:51;;;;;;;1.65;1.50;;;;;;;22.34;63.38;100162.69;5059359;28;20031;-66
2023/07/30 06:20:16;;;;;;;1.70;1.60;;;;;;;22.37;63.22;100167.72;5059230;28;20024;-68
2023/07/30 06:22:42;;;;;;;1.60;1.27;;;;;;;22.37;63.52;100159.78;5055151;28;20409;-65
2023/07/30 06:25:07;;;;;;;1.40;1.30;;;;;;;22.39;63.45;100154.38;5051344;28;20137;-67
2023/07/30 06:27:32;;;;;;;1.88;1.67;;;;;;;22.38;63.43;100158.81;5060288;28;20032;-67
2023/07/30 06:29:58;;;;;;;1.50;1.40;;;;;;;22.40;62.97;100163.97;5061839;28;20032;-66
2023/07/30 06:32:23;;;;;;;2.25;1.55;;;;;;;22.41;63.15;100169.16;5057831;28;20051;-70
2023/07/30 06:34:49;;;;;;;2.13;1.70;;;;;;;22.40;63.04;100169.25;5058745;28;20032;-66
2023/07/30 06:37:14;;;;;;;1.90;1.80;;;;;;;22.39;63.37;100162.31;5058779;28;20575;-67
2023/07/30 06:39:39;;;;;;;1.80;1.67;;;;;;;22.38;63.32;100166.75;5058630;28;20028;-67
2023/07/30 06:42:05;;;;;;;1.92;1.75;;;;;;;22.37;62.98;100174.84;5055743;28;20813;-65
2023/07/30 06:44:30;;;;;;;1.52;1.40;;;;;;;22.37;63.25;100174.84;5058151;28;20456;-67
2023/07/30 06:46:56;;;;;;;1.80;1.70;;;;;;;22.36;63.21;100179.28;5056610;28;20059;-66
2023/07/30 06:49:21;;;;;;;1.90;1.40;;;;;;;22.36;62.97;100186.38;5058582;28;20773;-69
2023/07/30 06:51:46;;;;;;;3.05;1.73;;;;;;;22.35;63.19;100190.84;5055117;28;20416;-70
2023/07/30 06:54:12;;;;;;;1.67;1.58;;;;;;;22.34;63.23;100190.94;5054916;28;20033;-66
2023/07/30 06:56:37;;;;;;;1.75;1.65;;;;;;;22.36;63.44;100199.63;5057827;28;20119;-67
2023/07/30 06:59:03;;;;;;;2.78;1.60;;;;;;;22.33;63.51;100200.69;5059320;28;20032;-66
2023/07/30 07:01:28;;;;;;;1.60;1.50;;;;;;;22.32;63.40;100196.38;5055618;28;20024;-67
2023/07/30 07:03:54;;;;;;;1.60;1.50;;;;;;;22.32;63.53;100193.75;5056612;28;20879;-69
2023/07/30 07:06:19;;;;;;;1.85;1.50;;;;;;;22.32;63.61;100200.84;5055781;28;20055;-68
2023/07/30 07:08:44;;;;;;;2.85;1.88;;;;;;;22.32;63.51;100209.59;5060132;28;20656;-67
2023/07/30 07:11:10;;;;;;;1.88;1.65;;;;;;;22.33;63.54;100215.72;5059825;28;20502;-68
2023/07/30 07:13:35;;;;;;;1.42;1.33;;;;;;;22.33;63.62;100213.91;5052018;28;20531;-67
2023/07/30 07:16:00;;;;;;;2.05;1.83;;;;;;;22.33;63.73;100221.84;5061224;28;20631;-66
2023/07/30 07:18:26;;;;;;;1.73;1.63;;;;;;;22.33;63.72;100221.84;5058491;28;20033;-69
2023/07/30 07:20:51;;;;;;;1.95;1.80;;;;;;;22.35;63.50;100227.00;5058603;28;20036;-68
2023/07/30 07:23:16;;;;;;;1.92;1.75;;;;;;;22.34;63.43;100223.53;5061956;28;20582;-71
2023/07/30 07:25:43;;;;;;;1.80;1.70;;;;;;;22.35;63.32;100224.34;5054051;28;20052;-66
2023/07/30 07:28:09;;;;;;;1.73;1.63;;;;;;;22.34;63.55;100225.34;5059326;28;20027;-66
2023/07/30 07:30:36;;;;;;;1.85;1.75;;;;;;;22.34;63.38;100223.53;5058246;28;21342;-66
2023/07/30 07:33:01;;;;;;;1.65;1.55;;;;;;;22.33;63.64;100224.50;5053576;28;20031;-68
2023/07/30 07:35:27;;;;;;;2.97;1.50;;;;;;;22.34;63.59;100222.69;5060496;28;20031;-68
2023/07/30 07:37:52;;;;;;;2.08;1.90;;;;;;;22.34;63.34;100228.81;5058003;28;20060;-66
2023/07/30 07:40:17;;;;;;;2.00;1.90;;;;;;;22.34;63.38;100209.47;5058081;28;20027;-65
2023/07/30 07:42:43;;;;;;;1.67;1.58;;;;;;;22.35;63.32;100221.72;5059560;28;20043;-68
2023/07/30 07:45:08;;;;;;;1.73;1.63;;;;;;;22.35;63.30;100212.00;5049514;28;20379;-67
2023/07/30 07:47:34;;;;;;;2.83;1.65;;;;;;;22.34;63.25;100212.94;5057251;28;20024;-65
2023/07/30 07:49:59;;;;;;;1.90;1.80;;;;;;;22.35;63.46;100225.22;5057019;28;20546;-66
2023/07/30 07:52:25;;;;;;;1.92;1.80;;;;;;;22.36;63.50;100221.59;5049250;28;20864;-68
2023/07/30 07:54:50;;;;;;;1.83;1.63;;;;;;;22.37;63.35;100227.72;5051165;28;20803;-69
2023/07/30 07:57:15;;;;;;;3.45;1.98;;;;;;;22.37;63.23;100223.28;5056326;28;20032;-66
2023/07/30 07:59:44;;;;;;;1.83;1.73;;;;;;;22.39;63.21;100221.31;5056431;28;20035;-68
2023/07/30 08:02:10;;;;;;;2.13;2.03;;;;;;;22.49;62.86;100216.94;5059499;28;20035;-69
2023/07/30 08:04:35;;;;;;;1.80;1.70;;;;;;;22.56;62.81;100227.81;5052405;28;20493;-67
2023/07/30 08:07:03;;;;;;;6.78;1.73;;;;;;;22.78;62.71;100232.06;5048354;28;20028;-67
2023/07/30 08:09:29;;;;;;;5.72;2.03;;;;;;;22.81;62.31;100229.19;5057573;28;20447;-67
2023/07/30 08:11:54;;;;;;;2.85;1.90;;;;;;;22.77;62.92;100233.06;5060254;28;20028;-68
2023/07/30 08:14:19;;;;;;;1.75;1.63;;;;;;;22.78;63.53;100236.53;5060618;28;20796;-66
2023/07/30 08:16:44;;;;;;;11.35;5.47;;;;;;;22.97;64.37;100236.63;5055462;28;20495;-66
2023/07/30 08:19:10;;;;;;;21.70;5.78;;;;;;;23.05;64.04;100243.91;5058302;28;20369;-69
2023/07/30 08:21:35;;;;;;;29.42;6.80;;;;;;;23.17;63.78;100243.66;5056409;28;20032;-66
2023/07/30 08:24:00;;;;;;;23.08;5.50;;;;;;;23.26;64.57;100258.72;5051276;28;20671;-68
2023/07/30 08:26:26;;;;;;;21.73;6.07;;;;;;;23.31;64.97;100254.81;5056670;28;20372;-68
2023/07/30 08:28:51;;;;;;;5.38;2.85;;;;;;;23.11;63.26;100256.59;5057990;28;20024;-69
2023/07/30 08:31:16;;;;;;;4.20;2.83;;;;;;;22.99;63.65;100256.72;5037570;28;20045;-67
2023/07/30 08:33:42;;;;;;;3.75;2.40;;;;;;;22.94;63.57;100253.63;5047195;28;20025;-74
2023/07/30 08:36:07;;;;;;;5.68;2.90;;;;;;;22.96;64.59;100245.53;5032727;28;20032;-70
2023/07/30 08:38:33;;;;;;;4.75;2.63;;;;;;;23.13;63.97;100246.69;5058639;28;20066;-67
2023/07/30 08:40:58;;;;;;;13.18;3.17;;;;;;;23.17;63.00;100242.81;5036613;28;20029;-69
2023/07/30 08:43:24;;;;;;;5.70;2.80;;;;;;;23.29;63.39;100241.72;5052951;28;20535;-69
2023/07/30 08:45:49;;;;;;;4.80;2.63;;;;;;;23.18;62.70;100241.84;5055084;28;20119;-69
2023/07/30 08:48:14;;;;;;;6.57;2.80;;;;;;;23.19;63.71;100243.50;5052195;28;20047;-67
2023/07/30 08:50:40;;;;;;;7.57;2.40;;;;;;;23.24;63.14;100249.22;5049994;28;20028;-68
2023/07/30 08:53:07;;;;;;;6.50;2.50;;;;;;;23.25;63.13;100242.97;5033089;28;20500;-69
2023/07/30 08:55:33;;;;;;;4.00;2.20;;;;;;;23.26;63.34;100249.97;5058018;28;20097;-70
2023/07/30 08:58:01;;;;;;;3.60;2.10;;;;;;;23.25;63.23;100256.19;5054969;28;20705;-70
2023/07/30 09:00:30;;;;;;;3.22;2.70;;;;;;;23.22;62.54;100257.31;5052632;28;20020;-70
2023/07/30 09:02:59;;;;;;;5.82;2.22;;;;;;;23.27;62.37;100264.88;5051276;28;20032;-69
2023/07/30 09:05:27;;;;;;;4.30;2.22;;;;;;;23.32;64.09;100257.34;5050401;28;20773;-67
2023/07/30 09:07:53;;;;;;;4.15;2.33;;;;;;;23.26;62.67;100257.91;5055398;28;20040;-69
2023/07/30 09:10:18;;;;;;;4.20;2.30;;;;;;;23.26;63.80;100253.44;5056242;28;20066;-68
2023/07/30 09:12:44;;;;;;;5.85;2.67;;;;;;;23.29;63.93;100247.00;5053586;28;20036;-68
2023/07/30 09:15:09;;;;;;;7.40;2.60;;;;;;;23.43;63.97;100254.56;5054357;28;20059;-68
2023/07/30 09:17:35;;;;;;;5.28;2.40;;;;;;;23.48;63.29;100252.34;5061739;28;20111;-68
2023/07/30 09:20:01;;;;;;;5.25;2.50;;;;;;;23.46;63.76;100264.06;5060259;28;20039;-66
2023/07/30 09:22:28;;;;;;;4.50;2.78;;;;;;;23.45;63.55;100265.03;5057966;28;20744;-66
2023/07/30 09:24:54;;;;;;;6.35;2.88;;;;;;;23.43;64.38;100257.22;5050874;28;20582;-71
2023/07/30 09:27:25;;;;;;;8.82;2.60;;;;;;;23.41;63.25;100256.50;5060388;28;20143;-67
2023/07/30 09:29:55;;;;;;;5.28;2.33;;;;;;;23.37;63.09;100267.50;5058050;28;20131;-69
2023/07/30 09:32:20;;;;;;;4.60;2.30;;;;;;;23.19;61.35;100273.47;5058305;28;20032;-66
2023/07/30 09:34:46;;;;;;;5.65;2.13;;;;;;;23.03;61.22;100265.22;5053883;28;20067;-69
2023/07/30 09:37:12;;;;;;;3.53;2.40;;;;;;;22.95;61.09;100273.81;5058723;28;20090;-68
2023/07/30 09:39:37;;;;;;;5.20;2.30;;;;;;;22.92;60.96;100281.22;5042170;28;20206;-71
2023/07/30 09:42:03;;;;;;;3.60;2.08;;;;;;;22.82;60.97;100286.44;5040974;28;20449;-73
2023/07/30 09:44:31;;;;;;;4.68;2.08;;;;;;;22.75;60.45;100295.88;5060851;28;20032;-72
2023/07/30 09:46:57;;;;;;;2.17;1.85;;;;;;;22.70;60.57;100287.50;5057640;28;20047;-69
2023/07/30 09:49:22;;;;;;;2.72;1.73;;;;;;;22.66;60.76;100294.00;5059571;28;20427;-71
2023/07/30 09:51:48;;;;;;;2.78;2.05;;;;;;;22.63;60.65;100283.69;5056223;28;20083;-71
2023/07/30 09:54:14;;;;;;;3.60;2.17;;;;;;;22.64;60.77;100295.97;5055957;28;20035;-72
2023/07/30 09:56:40;;;;;;;4.65;2.10;;;;;;;22.63;60.33;100294.25;5057815;28;20079;-73
2023/07/30 09:59:07;;;;;;;2.22;1.80;;;;;;;22.62;60.33;100295.25;5059793;28;20020;-71
2023/07/30 10:01:41;;;;;;;2.55;2.05;;;;;;;22.62;60.47;100296.06;5058116;28;20089;-69
2023/07/30 10:04:10;;;;;;;2.40;2.00;;;;;;;22.65;61.09;100302.94;5053942;28;20451;-70
2023/07/30 10:06:41;;;;;;;3.50;2.15;;;;;;;22.66;60.76;100302.78;5055474;28;20058;-71
2023/07/30 10:09:07;;;;;;;3.90;2.30;;;;;;;22.66;60.81;100301.94;5061532;28;20898;-72
2023/07/30 10:11:32;;;;;;;4.63;2.28;;;;;;;22.66;60.88;100294.84;5056071;28;20024;-74
2023/07/30 10:13:58;;;;;;;4.55;2.22;;;;;;;22.66;60.96;100300.16;5039130;28;20511;-73
2023/07/30 10:16:27;;;;;;;3.92;2.08;;;;;;;22.68;61.09;100300.00;5062075;28;20036;-73
2023/07/30 10:18:57;;;;;;;7.43;2.10;;;;;;;22.69;61.16;100301.69;5043960;28;20036;-71
2023/07/30 10:21:23;;;;;;;6.18;2.53;;;;;;;22.67;60.93;100299.16;5054437;28;20025;-70
2023/07/30 10:24:03;;;;;;;2.67;1.90;;;;;;;22.72;60.98;100310.19;5053247;28;20028;-69
2023/07/30 10:26:30;;;;;;;4.82;2.30;;;;;;;22.78;60.75;100305.34;5082635;27;20893;-72
2023/07/30 10:29:18;;;;;;;6.28;2.00;;;;;;;22.75;61.15;100311.75;5059526;28;20032;-68
2023/07/30 10:31:55;;;;;;;3.43;2.00;;;;;;;22.70;60.88;100316.59;5065628;28;20055;-74
2023/07/30 10:34:21;;;;;;;5.30;2.03;;;;;;;22.72;60.69;100317.31;5046375;28;20031;-72
2023/07/30 10:36:50;;;;;;;3.80;2.28;;;;;;;22.70;60.96;100324.56;5044927;28;20788;-70
2023/07/30 10:39:17;;;;;;;;;;;;;;;22.68;60.94;100327.31;5045130;28;20032;-70
2023/07/30 10:41:47;;;;;;;5.78;2.40;;;;;;;22.67;60.78;100336.22;5044854;28;20031;-72
2023/07/30 10:44:22;;;;;;;5.57;2.30;;;;;;;22.67;60.75;100344.16;5032173;28;20032;-71
2023/07/30 10:46:47;;;;;;;4.82;2.22;;;;;;;22.67;61.35;100343.31;5057920;28;20036;-70
2023/07/30 10:49:12;;;;;;;3.47;2.03;;;;;;;22.68;61.34;100345.81;5058973;28;20052;-74
2023/07/30 10:51:38;;;;;;;4.90;2.25;;;;;;;22.73;61.09;100348.09;5053031;28;20056;-71
2023/07/30 10:54:07;;;;;;;4.10;1.80;;;;;;;22.80;61.05;100345.75;5051983;28;20417;-70
2023/07/30 10:56:35;;;;;;;3.42;1.95;;;;;;;22.75;61.13;100338.22;5057490;28;20052;-71
2023/07/30 10:59:00;;;;;;;5.97;2.45;;;;;;;22.71;61.51;100352.69;5057799;28;20060;-71
2023/07/30 11:01:26;;;;;;;2.30;1.80;;;;;;;22.70;61.30;100353.66;5052694;28;20148;-73
2023/07/30 11:03:52;;;;;;;6.10;2.10;;;;;;;22.71;61.47;100358.81;5049062;28;20113;-74
2023/07/30 11:06:25;;;;;;;9.48;2.80;;;;;;;22.73;61.41;100359.50;5055205;28;20043;-73
2023/07/30 11:08:50;;;;;;;6.68;2.10;;;;;;;22.71;61.24;100358.81;5058140;28;20024;-72
2023/07/30 11:11:15;;;;;;;3.55;1.90;;;;;;;22.70;61.35;100361.59;5057363;28;20717;-70
2023/07/30 11:13:42;;;;;;;4.80;2.13;;;;;;;22.68;61.39;100351.13;5053111;28;20146;-69
2023/07/30 11:16:09;;;;;;;3.92;2.53;;;;;;;22.68;61.25;100347.63;5051334;28;20028;-72
2023/07/30 11:18:36;;;;;;;5.28;1.75;;;;;;;22.67;61.37;100356.56;5057865;28;20035;-67